Aviation Digital Data Service (ADDS)

Output produced by METARs form (0919 UTC 23 July 2019)
found at http://www.aviationweather.gov/metar/data/
 
METAR text: KTMK 230855Z AUTO 00000KT 10SM BKN020 13/12 A3011 RMK AO2
Conditions at: KTMK (TILLAMOOK , OR, US) observed 0855 UTC 23 July 2019
Temperature: 13.0°C (55°F)
Dewpoint: 12.0°C (54°F) [RH = 94%]
Pressure (altimeter): 30.11 inches Hg (1019.7 mb)
Winds: calm
Visibility: 10 or more miles (16+ km)
Ceiling: 2000 feet AGL
Clouds: broken clouds at 2000 feet AGL
Weather: automated observation with no human augmentation;
there may or may not be significant weather present at this time

METAR text: KTMK 230835Z AUTO 00000KT 10SM SCT020 13/12 A3011 RMK AO2
Conditions at: KTMK (TILLAMOOK , OR, US) observed 0835 UTC 23 July 2019
Temperature: 13.0°C (55°F)
Dewpoint: 12.0°C (54°F) [RH = 94%]
Pressure (altimeter): 30.11 inches Hg (1019.7 mb)
Winds: calm
Visibility: 10 or more miles (16+ km)
Ceiling: at least 12,000 feet AGL
Clouds: scattered clouds at 2000 feet AGL
Weather: automated observation with no human augmentation;
there may or may not be significant weather present at this time

METAR text: KTMK 230815Z AUTO 00000KT 10SM CLR 13/12 A3011 RMK AO2
Conditions at: KTMK (TILLAMOOK , OR, US) observed 0815 UTC 23 July 2019
Temperature: 13.0°C (55°F)
Dewpoint: 12.0°C (54°F) [RH = 94%]
Pressure (altimeter): 30.11 inches Hg (1019.7 mb)
Winds: calm
Visibility: 10 or more miles (16+ km)
Ceiling: at least 12,000 feet AGL
Clouds: sky clear below 12,000 feet AGL
Weather: automated observation with no human augmentation;
there may or may not be significant weather present at this time

METAR text: KTMK 230755Z AUTO 00000KT 10SM CLR 13/12 A3011 RMK AO2
Conditions at: KTMK (TILLAMOOK , OR, US) observed 0755 UTC 23 July 2019
Temperature: 13.0°C (55°F)
Dewpoint: 12.0°C (54°F) [RH = 94%]
Pressure (altimeter): 30.11 inches Hg (1019.7 mb)
Winds: calm
Visibility: 10 or more miles (16+ km)
Ceiling: at least 12,000 feet AGL
Clouds: sky clear below 12,000 feet AGL
Weather: automated observation with no human augmentation;
there may or may not be significant weather present at this time

METAR text: KTMK 230735Z AUTO 00000KT 10SM CLR 13/12 A3011 RMK AO2
Conditions at: KTMK (TILLAMOOK , OR, US) observed 0735 UTC 23 July 2019
Temperature: 13.0°C (55°F)
Dewpoint: 12.0°C (54°F) [RH = 94%]
Pressure (altimeter): 30.11 inches Hg (1019.7 mb)
Winds: calm
Visibility: 10 or more miles (16+ km)
Ceiling: at least 12,000 feet AGL
Clouds: sky clear below 12,000 feet AGL
Weather: automated observation with no human augmentation;
there may or may not be significant weather present at this time

METAR text: KTMK 230715Z AUTO 00000KT 10SM CLR 13/12 A3011 RMK AO2
Conditions at: KTMK (TILLAMOOK , OR, US) observed 0715 UTC 23 July 2019
Temperature: 13.0°C (55°F)
Dewpoint: 12.0°C (54°F) [RH = 94%]
Pressure (altimeter): 30.11 inches Hg (1019.7 mb)
Winds: calm
Visibility: 10 or more miles (16+ km)
Ceiling: at least 12,000 feet AGL
Clouds: sky clear below 12,000 feet AGL
Weather: automated observation with no human augmentation;
there may or may not be significant weather present at this time

METAR text: KTMK 230655Z AUTO 00000KT 10SM CLR 15/13 A3011 RMK AO2
Conditions at: KTMK (TILLAMOOK , OR, US) observed 0655 UTC 23 July 2019
Temperature: 15.0°C (59°F)
Dewpoint: 13.0°C (55°F) [RH = 88%]
Pressure (altimeter): 30.11 inches Hg (1019.7 mb)
Winds: calm
Visibility: 10 or more miles (16+ km)
Ceiling: at least 12,000 feet AGL
Clouds: sky clear below 12,000 feet AGL
Weather: automated observation with no human augmentation;
there may or may not be significant weather present at this time

METAR text: KTMK 230635Z AUTO 00000KT 10SM CLR 15/13 A3011 RMK AO2
Conditions at: KTMK (TILLAMOOK , OR, US) observed 0635 UTC 23 July 2019
Temperature: 15.0°C (59°F)
Dewpoint: 13.0°C (55°F) [RH = 88%]
Pressure (altimeter): 30.11 inches Hg (1019.7 mb)
Winds: calm
Visibility: 10 or more miles (16+ km)
Ceiling: at least 12,000 feet AGL
Clouds: sky clear below 12,000 feet AGL
Weather: automated observation with no human augmentation;
there may or may not be significant weather present at this time

METAR text: KTMK 230615Z AUTO 15003KT 10SM CLR 15/13 A3010 RMK AO2
Conditions at: KTMK (TILLAMOOK , OR, US) observed 0615 UTC 23 July 2019
Temperature: 15.0°C (59°F)
Dewpoint: 13.0°C (55°F) [RH = 88%]
Pressure (altimeter): 30.10 inches Hg (1019.4 mb)
Winds: from the SSE (150 degrees) at 3 MPH (3 knots; 1.5 m/s)
Visibility: 10 or more miles (16+ km)
Ceiling: at least 12,000 feet AGL
Clouds: sky clear below 12,000 feet AGL
Weather: automated observation with no human augmentation;
there may or may not be significant weather present at this time

METAR text: KTMK 230555Z AUTO 15003KT 10SM CLR 15/13 A3011 RMK AO2
Conditions at: KTMK (TILLAMOOK , OR, US) observed 0555 UTC 23 July 2019
Temperature: 15.0°C (59°F)
Dewpoint: 13.0°C (55°F) [RH = 88%]
Pressure (altimeter): 30.11 inches Hg (1019.7 mb)
Winds: from the SSE (150 degrees) at 3 MPH (3 knots; 1.5 m/s)
Visibility: 10 or more miles (16+ km)
Ceiling: at least 12,000 feet AGL
Clouds: sky clear below 12,000 feet AGL
Weather: automated observation with no human augmentation;
there may or may not be significant weather present at this time

METAR text: KTMK 230535Z AUTO 14004KT 10SM CLR 15/13 A3011 RMK AO2
Conditions at: KTMK (TILLAMOOK , OR, US) observed 0535 UTC 23 July 2019
Temperature: 15.0°C (59°F)
Dewpoint: 13.0°C (55°F) [RH = 88%]
Pressure (altimeter): 30.11 inches Hg (1019.7 mb)
Winds: from the SE (140 degrees) at 5 MPH (4 knots; 2.1 m/s)
Visibility: 10 or more miles (16+ km)
Ceiling: at least 12,000 feet AGL
Clouds: sky clear below 12,000 feet AGL
Weather: automated observation with no human augmentation;
there may or may not be significant weather present at this time

METAR text: KTMK 230515Z AUTO 14003KT 10SM CLR 16/13 A3011 RMK AO2
Conditions at: KTMK (TILLAMOOK , OR, US) observed 0515 UTC 23 July 2019
Temperature: 16.0°C (61°F)
Dewpoint: 13.0°C (55°F) [RH = 82%]
Pressure (altimeter): 30.11 inches Hg (1019.7 mb)
Winds: from the SE (140 degrees) at 3 MPH (3 knots; 1.5 m/s)
Visibility: 10 or more miles (16+ km)
Ceiling: at least 12,000 feet AGL
Clouds: sky clear below 12,000 feet AGL
Weather: automated observation with no human augmentation;
there may or may not be significant weather present at this time

METAR text: KTMK 230455Z AUTO 15003KT 10SM CLR 16/13 A3011 RMK AO2
Conditions at: KTMK (TILLAMOOK , OR, US) observed 0455 UTC 23 July 2019
Temperature: 16.0°C (61°F)
Dewpoint: 13.0°C (55°F) [RH = 82%]
Pressure (altimeter): 30.11 inches Hg (1019.7 mb)
Winds: from the SSE (150 degrees) at 3 MPH (3 knots; 1.5 m/s)
Visibility: 10 or more miles (16+ km)
Ceiling: at least 12,000 feet AGL
Clouds: sky clear below 12,000 feet AGL
Weather: automated observation with no human augmentation;
there may or may not be significant weather present at this time

METAR text: KTMK 230435Z AUTO 00000KT 10SM CLR 16/13 A3010 RMK AO2
Conditions at: KTMK (TILLAMOOK , OR, US) observed 0435 UTC 23 July 2019
Temperature: 16.0°C (61°F)
Dewpoint: 13.0°C (55°F) [RH = 82%]
Pressure (altimeter): 30.10 inches Hg (1019.4 mb)
Winds: calm
Visibility: 10 or more miles (16+ km)
Ceiling: at least 12,000 feet AGL
Clouds: sky clear below 12,000 feet AGL
Weather: automated observation with no human augmentation;
there may or may not be significant weather present at this time

METAR text: KTMK 230415Z AUTO 00000KT 10SM CLR 17/13 A3010 RMK AO2
Conditions at: KTMK (TILLAMOOK , OR, US) observed 0415 UTC 23 July 2019
Temperature: 17.0°C (63°F)
Dewpoint: 13.0°C (55°F) [RH = 77%]
Pressure (altimeter): 30.10 inches Hg (1019.4 mb)
Winds: calm
Visibility: 10 or more miles (16+ km)
Ceiling: at least 12,000 feet AGL
Clouds: sky clear below 12,000 feet AGL
Weather: automated observation with no human augmentation;
there may or may not be significant weather present at this time

METAR text: KTMK 230355Z AUTO 00000KT 10SM CLR 17/13 A3010 RMK AO2
Conditions at: KTMK (TILLAMOOK , OR, US) observed 0355 UTC 23 July 2019
Temperature: 17.0°C (63°F)
Dewpoint: 13.0°C (55°F) [RH = 77%]
Pressure (altimeter): 30.10 inches Hg (1019.4 mb)
Winds: calm
Visibility: 10 or more miles (16+ km)
Ceiling: at least 12,000 feet AGL
Clouds: sky clear below 12,000 feet AGL
Weather: automated observation with no human augmentation;
there may or may not be significant weather present at this time

METAR text: KTMK 230335Z AUTO 24003KT 10SM CLR 17/13 A3010 RMK AO2
Conditions at: KTMK (TILLAMOOK , OR, US) observed 0335 UTC 23 July 2019
Temperature: 17.0°C (63°F)
Dewpoint: 13.0°C (55°F) [RH = 77%]
Pressure (altimeter): 30.10 inches Hg (1019.4 mb)
Winds: from the WSW (240 degrees) at 3 MPH (3 knots; 1.5 m/s)
Visibility: 10 or more miles (16+ km)
Ceiling: at least 12,000 feet AGL
Clouds: sky clear below 12,000 feet AGL
Weather: automated observation with no human augmentation;
there may or may not be significant weather present at this time

METAR text: KTMK 230315Z AUTO 27003KT 10SM CLR 17/13 A3010 RMK AO2
Conditions at: KTMK (TILLAMOOK , OR, US) observed 0315 UTC 23 July 2019
Temperature: 17.0°C (63°F)
Dewpoint: 13.0°C (55°F) [RH = 77%]
Pressure (altimeter): 30.10 inches Hg (1019.4 mb)
Winds: from the W (270 degrees) at 3 MPH (3 knots; 1.5 m/s)
Visibility: 10 or more miles (16+ km)
Ceiling: at least 12,000 feet AGL
Clouds: sky clear below 12,000 feet AGL
Weather: automated observation with no human augmentation;
there may or may not be significant weather present at this time

METAR text: KTMK 230255Z AUTO 27004KT 10SM CLR 18/13 A3010 RMK AO2
Conditions at: KTMK (TILLAMOOK , OR, US) observed 0255 UTC 23 July 2019
Temperature: 18.0°C (64°F)
Dewpoint: 13.0°C (55°F) [RH = 73%]
Pressure (altimeter): 30.10 inches Hg (1019.4 mb)
Winds: from the W (270 degrees) at 5 MPH (4 knots; 2.1 m/s)
Visibility: 10 or more miles (16+ km)
Ceiling: at least 12,000 feet AGL
Clouds: sky clear below 12,000 feet AGL
Weather: automated observation with no human augmentation;
there may or may not be significant weather present at this time

METAR text: KTMK 230235Z AUTO 28006KT 10SM CLR 18/13 A3010 RMK AO2
Conditions at: KTMK (TILLAMOOK , OR, US) observed 0235 UTC 23 July 2019
Temperature: 18.0°C (64°F)
Dewpoint: 13.0°C (55°F) [RH = 73%]
Pressure (altimeter): 30.10 inches Hg (1019.4 mb)
Winds: from the W (280 degrees) at 7 MPH (6 knots; 3.1 m/s)
Visibility: 10 or more miles (16+ km)
Ceiling: at least 12,000 feet AGL
Clouds: sky clear below 12,000 feet AGL
Weather: automated observation with no human augmentation;
there may or may not be significant weather present at this time

METAR text: KTMK 230215Z AUTO 27006KT 10SM CLR 18/13 A3010 RMK AO2
Conditions at: KTMK (TILLAMOOK , OR, US) observed 0215 UTC 23 July 2019
Temperature: 18.0°C (64°F)
Dewpoint: 13.0°C (55°F) [RH = 73%]
Pressure (altimeter): 30.10 inches Hg (1019.4 mb)
Winds: from the W (270 degrees) at 7 MPH (6 knots; 3.1 m/s)
Visibility: 10 or more miles (16+ km)
Ceiling: at least 12,000 feet AGL
Clouds: sky clear below 12,000 feet AGL
Weather: automated observation with no human augmentation;
there may or may not be significant weather present at this time

METAR text: KTMK 230155Z AUTO 29010KT 10SM CLR 19/13 A3010 RMK AO2
Conditions at: KTMK (TILLAMOOK , OR, US) observed 0155 UTC 23 July 2019
Temperature: 19.0°C (66°F)
Dewpoint: 13.0°C (55°F) [RH = 68%]
Pressure (altimeter): 30.10 inches Hg (1019.4 mb)
Winds: from the WNW (290 degrees) at 12 MPH (10 knots; 5.1 m/s)
Visibility: 10 or more miles (16+ km)
Ceiling: at least 12,000 feet AGL
Clouds: sky clear below 12,000 feet AGL
Weather: automated observation with no human augmentation;
there may or may not be significant weather present at this time

METAR text: KTMK 230135Z AUTO 29011G15KT 10SM CLR 20/13 A3011 RMK AO2
Conditions at: KTMK (TILLAMOOK , OR, US) observed 0135 UTC 23 July 2019
Temperature: 20.0°C (68°F)
Dewpoint: 13.0°C (55°F) [RH = 64%]
Pressure (altimeter): 30.11 inches Hg (1019.7 mb)
Winds: from the WNW (290 degrees) at 13 MPH (11 knots; 5.7 m/s)
gusting to 17 MPH (15 knots; 7.7 m/s)
Visibility: 10 or more miles (16+ km)
Ceiling: at least 12,000 feet AGL
Clouds: sky clear below 12,000 feet AGL
Weather: automated observation with no human augmentation;
there may or may not be significant weather present at this time

METAR text: KTMK 230115Z AUTO 29011KT 10SM CLR 20/13 A3011 RMK AO2
Conditions at: KTMK (TILLAMOOK , OR, US) observed 0115 UTC 23 July 2019
Temperature: 20.0°C (68°F)
Dewpoint: 13.0°C (55°F) [RH = 64%]
Pressure (altimeter): 30.11 inches Hg (1019.7 mb)
Winds: from the WNW (290 degrees) at 13 MPH (11 knots; 5.7 m/s)
Visibility: 10 or more miles (16+ km)
Ceiling: at least 12,000 feet AGL
Clouds: sky clear below 12,000 feet AGL
Weather: automated observation with no human augmentation;
there may or may not be significant weather present at this time

METAR text: KTMK 230055Z AUTO 30012KT 10SM CLR 21/13 A3011 RMK AO2
Conditions at: KTMK (TILLAMOOK , OR, US) observed 0055 UTC 23 July 2019
Temperature: 21.0°C (70°F)
Dewpoint: 13.0°C (55°F) [RH = 60%]
Pressure (altimeter): 30.11 inches Hg (1019.7 mb)
Winds: from the WNW (300 degrees) at 14 MPH (12 knots; 6.2 m/s)
Visibility: 10 or more miles (16+ km)
Ceiling: at least 12,000 feet AGL
Clouds: sky clear below 12,000 feet AGL
Weather: automated observation with no human augmentation;
there may or may not be significant weather present at this time

METAR text: KTMK 230035Z AUTO 29013KT 10SM CLR 21/13 A3012 RMK AO2
Conditions at: KTMK (TILLAMOOK , OR, US) observed 0035 UTC 23 July 2019
Temperature: 21.0°C (70°F)
Dewpoint: 13.0°C (55°F) [RH = 60%]
Pressure (altimeter): 30.12 inches Hg (1020.1 mb)
Winds: from the WNW (290 degrees) at 15 MPH (13 knots; 6.7 m/s)
Visibility: 10 or more miles (16+ km)
Ceiling: at least 12,000 feet AGL
Clouds: sky clear below 12,000 feet AGL
Weather: automated observation with no human augmentation;
there may or may not be significant weather present at this time

METAR text: KTMK 230015Z AUTO 30012G15KT 10SM CLR 21/13 A3012 RMK AO2
Conditions at: KTMK (TILLAMOOK , OR, US) observed 0015 UTC 23 July 2019
Temperature: 21.0°C (70°F)
Dewpoint: 13.0°C (55°F) [RH = 60%]
Pressure (altimeter): 30.12 inches Hg (1020.1 mb)
Winds: from the WNW (300 degrees) at 14 MPH (12 knots; 6.2 m/s)
gusting to 17 MPH (15 knots; 7.7 m/s)
Visibility: 10 or more miles (16+ km)
Ceiling: at least 12,000 feet AGL
Clouds: sky clear below 12,000 feet AGL
Weather: automated observation with no human augmentation;
there may or may not be significant weather present at this time

METAR text: KTMK 222355Z AUTO 30012KT 10SM CLR 21/12 A3012 RMK AO2
Conditions at: KTMK (TILLAMOOK , OR, US) observed 2355 UTC 22 July 2019
Temperature: 21.0°C (70°F)
Dewpoint: 12.0°C (54°F) [RH = 56%]
Pressure (altimeter): 30.12 inches Hg (1020.1 mb)
Winds: from the WNW (300 degrees) at 14 MPH (12 knots; 6.2 m/s)
Visibility: 10 or more miles (16+ km)
Ceiling: at least 12,000 feet AGL
Clouds: sky clear below 12,000 feet AGL
Weather: automated observation with no human augmentation;
there may or may not be significant weather present at this time

METAR text: KTMK 222335Z AUTO 30012KT 10SM CLR 21/12 A3012 RMK AO2
Conditions at: KTMK (TILLAMOOK , OR, US) observed 2335 UTC 22 July 2019
Temperature: 21.0°C (70°F)
Dewpoint: 12.0°C (54°F) [RH = 56%]
Pressure (altimeter): 30.12 inches Hg (1020.1 mb)
Winds: from the WNW (300 degrees) at 14 MPH (12 knots; 6.2 m/s)
Visibility: 10 or more miles (16+ km)
Ceiling: at least 12,000 feet AGL
Clouds: sky clear below 12,000 feet AGL
Weather: automated observation with no human augmentation;
there may or may not be significant weather present at this time

METAR text: KTMK 222315Z AUTO 30012KT 10SM CLR 21/13 A3012 RMK AO2
Conditions at: KTMK (TILLAMOOK , OR, US) observed 2315 UTC 22 July 2019
Temperature: 21.0°C (70°F)
Dewpoint: 13.0°C (55°F) [RH = 60%]
Pressure (altimeter): 30.12 inches Hg (1020.1 mb)
Winds: from the WNW (300 degrees) at 14 MPH (12 knots; 6.2 m/s)
Visibility: 10 or more miles (16+ km)
Ceiling: at least 12,000 feet AGL
Clouds: sky clear below 12,000 feet AGL
Weather: automated observation with no human augmentation;
there may or may not be significant weather present at this time

METAR text: KTMK 222255Z AUTO 31012KT 10SM CLR 21/13 A3011 RMK AO2
Conditions at: KTMK (TILLAMOOK , OR, US) observed 2255 UTC 22 July 2019
Temperature: 21.0°C (70°F)
Dewpoint: 13.0°C (55°F) [RH = 60%]
Pressure (altimeter): 30.11 inches Hg (1019.7 mb)
Winds: from the NW (310 degrees) at 14 MPH (12 knots; 6.2 m/s)
Visibility: 10 or more miles (16+ km)
Ceiling: at least 12,000 feet AGL
Clouds: sky clear below 12,000 feet AGL
Weather: automated observation with no human augmentation;
there may or may not be significant weather present at this time

METAR text: KTMK 222235Z AUTO 30010KT 10SM CLR 22/12 A3011 RMK AO2
Conditions at: KTMK (TILLAMOOK , OR, US) observed 2235 UTC 22 July 2019
Temperature: 22.0°C (72°F)
Dewpoint: 12.0°C (54°F) [RH = 53%]
Pressure (altimeter): 30.11 inches Hg (1019.7 mb)
Winds: from the WNW (300 degrees) at 12 MPH (10 knots; 5.1 m/s)
Visibility: 10 or more miles (16+ km)
Ceiling: at least 12,000 feet AGL
Clouds: sky clear below 12,000 feet AGL
Weather: automated observation with no human augmentation;
there may or may not be significant weather present at this time

METAR text: KTMK 222215Z AUTO 30009KT 10SM CLR 22/12 A3011 RMK AO2
Conditions at: KTMK (TILLAMOOK , OR, US) observed 2215 UTC 22 July 2019
Temperature: 22.0°C (72°F)
Dewpoint: 12.0°C (54°F) [RH = 53%]
Pressure (altimeter): 30.11 inches Hg (1019.7 mb)
Winds: from the WNW (300 degrees) at 10 MPH (9 knots; 4.6 m/s)
Visibility: 10 or more miles (16+ km)
Ceiling: at least 12,000 feet AGL
Clouds: sky clear below 12,000 feet AGL
Weather: automated observation with no human augmentation;
there may or may not be significant weather present at this time

METAR text: KTMK 222155Z AUTO 31008KT 10SM CLR 22/12 A3011 RMK AO2
Conditions at: KTMK (TILLAMOOK , OR, US) observed 2155 UTC 22 July 2019
Temperature: 22.0°C (72°F)
Dewpoint: 12.0°C (54°F) [RH = 53%]
Pressure (altimeter): 30.11 inches Hg (1019.7 mb)
Winds: from the NW (310 degrees) at 9 MPH (8 knots; 4.1 m/s)
Visibility: 10 or more miles (16+ km)
Ceiling: at least 12,000 feet AGL
Clouds: sky clear below 12,000 feet AGL
Weather: automated observation with no human augmentation;
there may or may not be significant weather present at this time

METAR text: KTMK 222135Z AUTO 31009KT 10SM CLR 22/12 A3011 RMK AO2
Conditions at: KTMK (TILLAMOOK , OR, US) observed 2135 UTC 22 July 2019
Temperature: 22.0°C (72°F)
Dewpoint: 12.0°C (54°F) [RH = 53%]
Pressure (altimeter): 30.11 inches Hg (1019.7 mb)
Winds: from the NW (310 degrees) at 10 MPH (9 knots; 4.6 m/s)
Visibility: 10 or more miles (16+ km)
Ceiling: at least 12,000 feet AGL
Clouds: sky clear below 12,000 feet AGL
Weather: automated observation with no human augmentation;
there may or may not be significant weather present at this time

METAR text: KTMK 222115Z AUTO 31011G14KT 10SM CLR 22/12 A3011 RMK AO2
Conditions at: KTMK (TILLAMOOK , OR, US) observed 2115 UTC 22 July 2019
Temperature: 22.0°C (72°F)
Dewpoint: 12.0°C (54°F) [RH = 53%]
Pressure (altimeter): 30.11 inches Hg (1019.7 mb)
Winds: from the NW (310 degrees) at 13 MPH (11 knots; 5.7 m/s)
gusting to 16 MPH (14 knots; 7.2 m/s)
Visibility: 10 or more miles (16+ km)
Ceiling: at least 12,000 feet AGL
Clouds: sky clear below 12,000 feet AGL
Weather: automated observation with no human augmentation;
there may or may not be significant weather present at this time

METAR text: KTMK 222055Z AUTO 31011G15KT 10SM CLR 22/12 A3011 RMK AO2
Conditions at: KTMK (TILLAMOOK , OR, US) observed 2055 UTC 22 July 2019
Temperature: 22.0°C (72°F)
Dewpoint: 12.0°C (54°F) [RH = 53%]
Pressure (altimeter): 30.11 inches Hg (1019.7 mb)
Winds: from the NW (310 degrees) at 13 MPH (11 knots; 5.7 m/s)
gusting to 17 MPH (15 knots; 7.7 m/s)
Visibility: 10 or more miles (16+ km)
Ceiling: at least 12,000 feet AGL
Clouds: sky clear below 12,000 feet AGL
Weather: automated observation with no human augmentation;
there may or may not be significant weather present at this time

METAR text: KTMK 222035Z AUTO 30011KT 10SM CLR 22/12 A3011 RMK AO2
Conditions at: KTMK (TILLAMOOK , OR, US) observed 2035 UTC 22 July 2019
Temperature: 22.0°C (72°F)
Dewpoint: 12.0°C (54°F) [RH = 53%]
Pressure (altimeter): 30.11 inches Hg (1019.7 mb)
Winds: from the WNW (300 degrees) at 13 MPH (11 knots; 5.7 m/s)
Visibility: 10 or more miles (16+ km)
Ceiling: at least 12,000 feet AGL
Clouds: sky clear below 12,000 feet AGL
Weather: automated observation with no human augmentation;
there may or may not be significant weather present at this time

METAR text: KTMK 222015Z AUTO 31009KT 10SM CLR 22/13 A3011 RMK AO2
Conditions at: KTMK (TILLAMOOK , OR, US) observed 2015 UTC 22 July 2019
Temperature: 22.0°C (72°F)
Dewpoint: 13.0°C (55°F) [RH = 57%]
Pressure (altimeter): 30.11 inches Hg (1019.7 mb)
Winds: from the NW (310 degrees) at 10 MPH (9 knots; 4.6 m/s)
Visibility: 10 or more miles (16+ km)
Ceiling: at least 12,000 feet AGL
Clouds: sky clear below 12,000 feet AGL
Weather: automated observation with no human augmentation;
there may or may not be significant weather present at this time

METAR text: KTMK 221955Z AUTO 29008KT 250V310 10SM CLR 22/12 A3011 RMK AO2
Conditions at: KTMK (TILLAMOOK , OR, US) observed 1955 UTC 22 July 2019
Temperature: 22.0°C (72°F)
Dewpoint: 12.0°C (54°F) [RH = 53%]
Pressure (altimeter): 30.11 inches Hg (1019.7 mb)
Winds: from the WNW (290 degrees) at 9 MPH (8 knots; 4.1 m/s)
Visibility: 10 or more miles (16+ km)
Ceiling: at least 12,000 feet AGL
Clouds: sky clear below 12,000 feet AGL
Weather: automated observation with no human augmentation;
there may or may not be significant weather present at this time

METAR text: KTMK 221935Z AUTO 28006KT 10SM CLR 22/13 A3011 RMK AO2
Conditions at: KTMK (TILLAMOOK , OR, US) observed 1935 UTC 22 July 2019
Temperature: 22.0°C (72°F)
Dewpoint: 13.0°C (55°F) [RH = 57%]
Pressure (altimeter): 30.11 inches Hg (1019.7 mb)
Winds: from the W (280 degrees) at 7 MPH (6 knots; 3.1 m/s)
Visibility: 10 or more miles (16+ km)
Ceiling: at least 12,000 feet AGL
Clouds: sky clear below 12,000 feet AGL
Weather: automated observation with no human augmentation;
there may or may not be significant weather present at this time

METAR text: KTMK 221915Z AUTO 31007KT 10SM CLR 21/12 A3011 RMK AO2
Conditions at: KTMK (TILLAMOOK , OR, US) observed 1915 UTC 22 July 2019
Temperature: 21.0°C (70°F)
Dewpoint: 12.0°C (54°F) [RH = 56%]
Pressure (altimeter): 30.11 inches Hg (1019.7 mb)
Winds: from the NW (310 degrees) at 8 MPH (7 knots; 3.6 m/s)
Visibility: 10 or more miles (16+ km)
Ceiling: at least 12,000 feet AGL
Clouds: sky clear below 12,000 feet AGL
Weather: automated observation with no human augmentation;
there may or may not be significant weather present at this time

METAR text: KTMK 221855Z AUTO 30007KT 10SM CLR 21/12 A3010 RMK AO2
Conditions at: KTMK (TILLAMOOK , OR, US) observed 1855 UTC 22 July 2019
Temperature: 21.0°C (70°F)
Dewpoint: 12.0°C (54°F) [RH = 56%]
Pressure (altimeter): 30.10 inches Hg (1019.4 mb)
Winds: from the WNW (300 degrees) at 8 MPH (7 knots; 3.6 m/s)
Visibility: 10 or more miles (16+ km)
Ceiling: at least 12,000 feet AGL
Clouds: sky clear below 12,000 feet AGL
Weather: automated observation with no human augmentation;
there may or may not be significant weather present at this time

METAR text: KTMK 221835Z AUTO 29003KT 10SM CLR 21/12 A3010 RMK AO2
Conditions at: KTMK (TILLAMOOK , OR, US) observed 1835 UTC 22 July 2019
Temperature: 21.0°C (70°F)
Dewpoint: 12.0°C (54°F) [RH = 56%]
Pressure (altimeter): 30.10 inches Hg (1019.4 mb)
Winds: from the WNW (290 degrees) at 3 MPH (3 knots; 1.5 m/s)
Visibility: 10 or more miles (16+ km)
Ceiling: at least 12,000 feet AGL
Clouds: sky clear below 12,000 feet AGL
Weather: automated observation with no human augmentation;
there may or may not be significant weather present at this time

METAR text: KTMK 221815Z AUTO 27003KT 10SM CLR 20/12 A3010 RMK AO2
Conditions at: KTMK (TILLAMOOK , OR, US) observed 1815 UTC 22 July 2019
Temperature: 20.0°C (68°F)
Dewpoint: 12.0°C (54°F) [RH = 60%]
Pressure (altimeter): 30.10 inches Hg (1019.4 mb)
Winds: from the W (270 degrees) at 3 MPH (3 knots; 1.5 m/s)
Visibility: 10 or more miles (16+ km)
Ceiling: at least 12,000 feet AGL
Clouds: sky clear below 12,000 feet AGL
Weather: automated observation with no human augmentation;
there may or may not be significant weather present at this time

METAR text: KTMK 221755Z AUTO 31004KT 10SM CLR 20/12 A3010 RMK AO2
Conditions at: KTMK (TILLAMOOK , OR, US) observed 1755 UTC 22 July 2019
Temperature: 20.0°C (68°F)
Dewpoint: 12.0°C (54°F) [RH = 60%]
Pressure (altimeter): 30.10 inches Hg (1019.4 mb)
Winds: from the NW (310 degrees) at 5 MPH (4 knots; 2.1 m/s)
Visibility: 10 or more miles (16+ km)
Ceiling: at least 12,000 feet AGL
Clouds: sky clear below 12,000 feet AGL
Weather: automated observation with no human augmentation;
there may or may not be significant weather present at this time

METAR text: KTMK 221735Z AUTO 00000KT 10SM CLR 19/11 A3010 RMK AO2
Conditions at: KTMK (TILLAMOOK , OR, US) observed 1735 UTC 22 July 2019
Temperature: 19.0°C (66°F)
Dewpoint: 11.0°C (52°F) [RH = 60%]
Pressure (altimeter): 30.10 inches Hg (1019.4 mb)
Winds: calm
Visibility: 10 or more miles (16+ km)
Ceiling: at least 12,000 feet AGL
Clouds: sky clear below 12,000 feet AGL
Weather: automated observation with no human augmentation;
there may or may not be significant weather present at this time

METAR text: KTMK 221715Z AUTO 00000KT 10SM CLR 18/12 A3009 RMK AO2
Conditions at: KTMK (TILLAMOOK , OR, US) observed 1715 UTC 22 July 2019
Temperature: 18.0°C (64°F)
Dewpoint: 12.0°C (54°F) [RH = 68%]
Pressure (altimeter): 30.09 inches Hg (1019.0 mb)
Winds: calm
Visibility: 10 or more miles (16+ km)
Ceiling: at least 12,000 feet AGL
Clouds: sky clear below 12,000 feet AGL
Weather: automated observation with no human augmentation;
there may or may not be significant weather present at this time

METAR text: KTMK 221655Z AUTO 28004KT 10SM CLR 18/12 A3009 RMK AO2
Conditions at: KTMK (TILLAMOOK , OR, US) observed 1655 UTC 22 July 2019
Temperature: 18.0°C (64°F)
Dewpoint: 12.0°C (54°F) [RH = 68%]
Pressure (altimeter): 30.09 inches Hg (1019.0 mb)
Winds: from the W (280 degrees) at 5 MPH (4 knots; 2.1 m/s)
Visibility: 10 or more miles (16+ km)
Ceiling: at least 12,000 feet AGL
Clouds: sky clear below 12,000 feet AGL
Weather: automated observation with no human augmentation;
there may or may not be significant weather present at this time

METAR text: KTMK 221635Z AUTO 00000KT 10SM CLR 17/12 A3009 RMK AO2
Conditions at: KTMK (TILLAMOOK , OR, US) observed 1635 UTC 22 July 2019
Temperature: 17.0°C (63°F)
Dewpoint: 12.0°C (54°F) [RH = 72%]
Pressure (altimeter): 30.09 inches Hg (1019.0 mb)
Winds: calm
Visibility: 10 or more miles (16+ km)
Ceiling: at least 12,000 feet AGL
Clouds: sky clear below 12,000 feet AGL
Weather: automated observation with no human augmentation;
there may or may not be significant weather present at this time

METAR text: KTMK 221615Z AUTO 00000KT 10SM CLR 17/13 A3009 RMK AO2
Conditions at: KTMK (TILLAMOOK , OR, US) observed 1615 UTC 22 July 2019
Temperature: 17.0°C (63°F)
Dewpoint: 13.0°C (55°F) [RH = 77%]
Pressure (altimeter): 30.09 inches Hg (1019.0 mb)
Winds: calm
Visibility: 10 or more miles (16+ km)
Ceiling: at least 12,000 feet AGL
Clouds: sky clear below 12,000 feet AGL
Weather: automated observation with no human augmentation;
there may or may not be significant weather present at this time

METAR text: KTMK 221555Z AUTO 00000KT 10SM CLR 15/12 A3010 RMK AO2
Conditions at: KTMK (TILLAMOOK , OR, US) observed 1555 UTC 22 July 2019
Temperature: 15.0°C (59°F)
Dewpoint: 12.0°C (54°F) [RH = 82%]
Pressure (altimeter): 30.10 inches Hg (1019.4 mb)
Winds: calm
Visibility: 10 or more miles (16+ km)
Ceiling: at least 12,000 feet AGL
Clouds: sky clear below 12,000 feet AGL
Weather: automated observation with no human augmentation;
there may or may not be significant weather present at this time

METAR text: KTMK 221535Z AUTO 00000KT 10SM CLR 14/12 A3009 RMK AO2
Conditions at: KTMK (TILLAMOOK , OR, US) observed 1535 UTC 22 July 2019
Temperature: 14.0°C (57°F)
Dewpoint: 12.0°C (54°F) [RH = 88%]
Pressure (altimeter): 30.09 inches Hg (1019.0 mb)
Winds: calm
Visibility: 10 or more miles (16+ km)
Ceiling: at least 12,000 feet AGL
Clouds: sky clear below 12,000 feet AGL
Weather: automated observation with no human augmentation;
there may or may not be significant weather present at this time

METAR text: KTMK 221515Z AUTO 00000KT 10SM CLR 13/11 A3009 RMK AO2
Conditions at: KTMK (TILLAMOOK , OR, US) observed 1515 UTC 22 July 2019
Temperature: 13.0°C (55°F)
Dewpoint: 11.0°C (52°F) [RH = 88%]
Pressure (altimeter): 30.09 inches Hg (1019.0 mb)
Winds: calm
Visibility: 10 or more miles (16+ km)
Ceiling: at least 12,000 feet AGL
Clouds: sky clear below 12,000 feet AGL
Weather: automated observation with no human augmentation;
there may or may not be significant weather present at this time

METAR text: KTMK 221455Z AUTO 00000KT 10SM CLR 12/11 A3009 RMK AO2
Conditions at: KTMK (TILLAMOOK , OR, US) observed 1455 UTC 22 July 2019
Temperature: 12.0°C (54°F)
Dewpoint: 11.0°C (52°F) [RH = 94%]
Pressure (altimeter): 30.09 inches Hg (1019.0 mb)
Winds: calm
Visibility: 10 or more miles (16+ km)
Ceiling: at least 12,000 feet AGL
Clouds: sky clear below 12,000 feet AGL
Weather: automated observation with no human augmentation;
there may or may not be significant weather present at this time

METAR text: KTMK 221435Z AUTO 00000KT 10SM CLR 11/10 A3009 RMK AO2
Conditions at: KTMK (TILLAMOOK , OR, US) observed 1435 UTC 22 July 2019
Temperature: 11.0°C (52°F)
Dewpoint: 10.0°C (50°F) [RH = 94%]
Pressure (altimeter): 30.09 inches Hg (1019.0 mb)
Winds: calm
Visibility: 10 or more miles (16+ km)
Ceiling: at least 12,000 feet AGL
Clouds: sky clear below 12,000 feet AGL
Weather: automated observation with no human augmentation;
there may or may not be significant weather present at this time

METAR text: KTMK 221415Z AUTO 00000KT 3/4SM BR BKN010 10/10 A3008 RMK AO2
Conditions at: KTMK (TILLAMOOK , OR, US) observed 1415 UTC 22 July 2019
Temperature: 10.0°C (50°F)
Dewpoint: 10.0°C (50°F) [RH = 100%]
Pressure (altimeter): 30.08 inches Hg (1018.7 mb)
Winds: calm
Visibility: 0.75 miles (1.21 km)
Ceiling: 1000 feet AGL
Clouds: broken clouds at 1000 feet AGL
Weather: BR  (mist)

METAR text: KTMK 221355Z AUTO 00000KT 10SM BKN010 BKN016 10/09 A3008 RMK AO2
Conditions at: KTMK (TILLAMOOK , OR, US) observed 1355 UTC 22 July 2019
Temperature: 10.0°C (50°F)
Dewpoint: 9.0°C (48°F) [RH = 93%]
Pressure (altimeter): 30.08 inches Hg (1018.7 mb)
Winds: calm
Visibility: 10 or more miles (16+ km)
Ceiling: 1000 feet AGL
Clouds: broken clouds at 1000 feet AGL
broken clouds at 1600 feet AGL
Weather: automated observation with no human augmentation;
there may or may not be significant weather present at this time

METAR text: KTMK 221335Z AUTO 00000KT 10SM SCT001 BKN010 BKN016 09/08 A3008 RMK AO2
Conditions at: KTMK (TILLAMOOK , OR, US) observed 1335 UTC 22 July 2019
Temperature: 9.0°C (48°F)
Dewpoint: 8.0°C (46°F) [RH = 93%]
Pressure (altimeter): 30.08 inches Hg (1018.7 mb)
Winds: calm
Visibility: 10 or more miles (16+ km)
Ceiling: 1000 feet AGL
Clouds: scattered clouds at 100 feet AGL
broken clouds at 1000 feet AGL
broken clouds at 1600 feet AGL
Weather: automated observation with no human augmentation;
there may or may not be significant weather present at this time

METAR text: KTMK 221315Z AUTO 00000KT 3/4SM BR BKN001 OVC016 09/08 A3007 RMK AO2
Conditions at: KTMK (TILLAMOOK , OR, US) observed 1315 UTC 22 July 2019
Temperature: 9.0°C (48°F)
Dewpoint: 8.0°C (46°F) [RH = 93%]
Pressure (altimeter): 30.07 inches Hg (1018.4 mb)
Winds: calm
Visibility: 0.75 miles (1.21 km)
Ceiling: 100 feet AGL
Clouds: broken clouds at 100 feet AGL
overcast cloud deck at 1600 feet AGL
Weather: BR  (mist)

METAR text: KTMK 221255Z AUTO 00000KT M1/4SM FG BKN001 OVC014 09/08 A3006 RMK AO2
Conditions at: KTMK (TILLAMOOK , OR, US) observed 1255 UTC 22 July 2019
Temperature: 9.0°C (48°F)
Dewpoint: 8.0°C (46°F) [RH = 93%]
Pressure (altimeter): 30.06 inches Hg (1018.0 mb)
Winds: calm
Visibility: 0.25 miles (0.40 km)
Ceiling: 100 feet AGL
Clouds: broken clouds at 100 feet AGL
overcast cloud deck at 1400 feet AGL
Weather: FG  (fog)

METAR text: KTMK 221235Z AUTO 00000KT 1/2SM FG BKN014 08/08 A3006 RMK AO2
Conditions at: KTMK (TILLAMOOK , OR, US) observed 1235 UTC 22 July 2019
Temperature: 8.0°C (46°F)
Dewpoint: 8.0°C (46°F) [RH = 100%]
Pressure (altimeter): 30.06 inches Hg (1018.0 mb)
Winds: calm
Visibility: 0.50 miles (0.80 km)
Ceiling: 1400 feet AGL
Clouds: broken clouds at 1400 feet AGL
Weather: FG  (fog)

METAR text: KTMK 221215Z AUTO 00000KT 10SM SCT014 09/08 A3006 RMK AO2
Conditions at: KTMK (TILLAMOOK , OR, US) observed 1215 UTC 22 July 2019
Temperature: 9.0°C (48°F)
Dewpoint: 8.0°C (46°F) [RH = 93%]
Pressure (altimeter): 30.06 inches Hg (1018.0 mb)
Winds: calm
Visibility: 10 or more miles (16+ km)
Ceiling: at least 12,000 feet AGL
Clouds: scattered clouds at 1400 feet AGL
Weather: automated observation with no human augmentation;
there may or may not be significant weather present at this time

METAR text: KTMK 221155Z AUTO 00000KT 2 1/2SM BR BKN001 09/09 A3005 RMK AO2 VIS 1/2V5
Conditions at: KTMK (TILLAMOOK , OR, US) observed 1155 UTC 22 July 2019
Temperature: 9.0°C (48°F)
Dewpoint: 9.0°C (48°F) [RH = 100%]
Pressure (altimeter): 30.05 inches Hg (1017.7 mb)
Winds: calm
Visibility: 2.50 miles (4.02 km)
Ceiling: 100 feet AGL
Clouds: broken clouds at 100 feet AGL
Weather: BR  (mist)

METAR text: KTMK 221135Z AUTO 00000KT 1/2SM FG OVC001 10/10 A3005 RMK AO2
Conditions at: KTMK (TILLAMOOK , OR, US) observed 1135 UTC 22 July 2019
Temperature: 10.0°C (50°F)
Dewpoint: 10.0°C (50°F) [RH = 100%]
Pressure (altimeter): 30.05 inches Hg (1017.7 mb)
Winds: calm
Visibility: 0.50 miles (0.80 km)
Ceiling: 100 feet AGL
Clouds: overcast cloud deck at 100 feet AGL
Weather: FG  (fog)

METAR text: KTMK 221115Z AUTO 00000KT 1/4SM FG OVC001 10/10 A3005 RMK AO2
Conditions at: KTMK (TILLAMOOK , OR, US) observed 1115 UTC 22 July 2019
Temperature: 10.0°C (50°F)
Dewpoint: 10.0°C (50°F) [RH = 100%]
Pressure (altimeter): 30.05 inches Hg (1017.7 mb)
Winds: calm
Visibility: 0.25 miles (0.40 km)
Ceiling: 100 feet AGL
Clouds: overcast cloud deck at 100 feet AGL
Weather: FG  (fog)

METAR text: KTMK 221055Z AUTO 00000KT 1/4SM FG OVC001 10/09 A3005 RMK AO2
Conditions at: KTMK (TILLAMOOK , OR, US) observed 1055 UTC 22 July 2019
Temperature: 10.0°C (50°F)
Dewpoint: 9.0°C (48°F) [RH = 93%]
Pressure (altimeter): 30.05 inches Hg (1017.7 mb)
Winds: calm
Visibility: 0.25 miles (0.40 km)
Ceiling: 100 feet AGL
Clouds: overcast cloud deck at 100 feet AGL
Weather: FG  (fog)

METAR text: KTMK 221035Z AUTO 00000KT 1 1/4SM BR VV007 10/08 A3004 RMK AO2 VIS 3/4V5
Conditions at: KTMK (TILLAMOOK , OR, US) observed 1035 UTC 22 July 2019
Temperature: 10.0°C (50°F)
Dewpoint: 8.0°C (46°F) [RH = 87%]
Pressure (altimeter): 30.04 inches Hg (1017.4 mb)
Winds: calm
Visibility: 1.25 miles (2.01 km)
Ceiling: indefinite ceiling with vertical visibility of 700 feet AGL
Clouds: obscured sky
Weather: BR  (mist)

METAR text: KTMK 221015Z AUTO 00000KT 10SM CLR 10/09 A3004 RMK AO2
Conditions at: KTMK (TILLAMOOK , OR, US) observed 1015 UTC 22 July 2019
Temperature: 10.0°C (50°F)
Dewpoint: 9.0°C (48°F) [RH = 93%]
Pressure (altimeter): 30.04 inches Hg (1017.4 mb)
Winds: calm
Visibility: 10 or more miles (16+ km)
Ceiling: at least 12,000 feet AGL
Clouds: sky clear below 12,000 feet AGL
Weather: automated observation with no human augmentation;
there may or may not be significant weather present at this time

METAR text: KTMK 220955Z AUTO 00000KT 10SM CLR 10/09 A3005 RMK AO2
Conditions at: KTMK (TILLAMOOK , OR, US) observed 0955 UTC 22 July 2019
Temperature: 10.0°C (50°F)
Dewpoint: 9.0°C (48°F) [RH = 93%]
Pressure (altimeter): 30.05 inches Hg (1017.7 mb)
Winds: calm
Visibility: 10 or more miles (16+ km)
Ceiling: at least 12,000 feet AGL
Clouds: sky clear below 12,000 feet AGL
Weather: automated observation with no human augmentation;
there may or may not be significant weather present at this time

METAR text: KTMK 220935Z AUTO 00000KT 10SM CLR 11/10 A3004 RMK AO2
Conditions at: KTMK (TILLAMOOK , OR, US) observed 0935 UTC 22 July 2019
Temperature: 11.0°C (52°F)
Dewpoint: 10.0°C (50°F) [RH = 94%]
Pressure (altimeter): 30.04 inches Hg (1017.4 mb)
Winds: calm
Visibility: 10 or more miles (16+ km)
Ceiling: at least 12,000 feet AGL
Clouds: sky clear below 12,000 feet AGL
Weather: automated observation with no human augmentation;
there may or may not be significant weather present at this time

METAR text: KTMK 220915Z AUTO 13003KT 10SM CLR 12/11 A3004 RMK AO2
Conditions at: KTMK (TILLAMOOK , OR, US) observed 0915 UTC 22 July 2019
Temperature: 12.0°C (54°F)
Dewpoint: 11.0°C (52°F) [RH = 94%]
Pressure (altimeter): 30.04 inches Hg (1017.4 mb)
Winds: from the SE (130 degrees) at 3 MPH (3 knots; 1.5 m/s)
Visibility: 10 or more miles (16+ km)
Ceiling: at least 12,000 feet AGL
Clouds: sky clear below 12,000 feet AGL
Weather: automated observation with no human augmentation;
there may or may not be significant weather present at this time

METAR text: KTMK 220855Z AUTO 00000KT 10SM CLR 11/10 A3004 RMK AO2
Conditions at: KTMK (TILLAMOOK , OR, US) observed 0855 UTC 22 July 2019
Temperature: 11.0°C (52°F)
Dewpoint: 10.0°C (50°F) [RH = 94%]
Pressure (altimeter): 30.04 inches Hg (1017.4 mb)
Winds: calm
Visibility: 10 or more miles (16+ km)
Ceiling: at least 12,000 feet AGL
Clouds: sky clear below 12,000 feet AGL
Weather: automated observation with no human augmentation;
there may or may not be significant weather present at this time

METAR text: KTMK 220835Z AUTO 00000KT 10SM CLR 12/11 A3005 RMK AO2
Conditions at: KTMK (TILLAMOOK , OR, US) observed 0835 UTC 22 July 2019
Temperature: 12.0°C (54°F)
Dewpoint: 11.0°C (52°F) [RH = 94%]
Pressure (altimeter): 30.05 inches Hg (1017.7 mb)
Winds: calm
Visibility: 10 or more miles (16+ km)
Ceiling: at least 12,000 feet AGL
Clouds: sky clear below 12,000 feet AGL
Weather: automated observation with no human augmentation;
there may or may not be significant weather present at this time

METAR text: KTMK 220815Z AUTO 00000KT 10SM CLR 12/10 A3004 RMK AO2
Conditions at: KTMK (TILLAMOOK , OR, US) observed 0815 UTC 22 July 2019
Temperature: 12.0°C (54°F)
Dewpoint: 10.0°C (50°F) [RH = 88%]
Pressure (altimeter): 30.04 inches Hg (1017.4 mb)
Winds: calm
Visibility: 10 or more miles (16+ km)
Ceiling: at least 12,000 feet AGL
Clouds: sky clear below 12,000 feet AGL
Weather: automated observation with no human augmentation;
there may or may not be significant weather present at this time

METAR text: KTMK 220755Z AUTO 00000KT 10SM CLR 12/11 A3004 RMK AO2
Conditions at: KTMK (TILLAMOOK , OR, US) observed 0755 UTC 22 July 2019
Temperature: 12.0°C (54°F)
Dewpoint: 11.0°C (52°F) [RH = 94%]
Pressure (altimeter): 30.04 inches Hg (1017.4 mb)
Winds: calm
Visibility: 10 or more miles (16+ km)
Ceiling: at least 12,000 feet AGL
Clouds: sky clear below 12,000 feet AGL
Weather: automated observation with no human augmentation;
there may or may not be significant weather present at this time

METAR text: KTMK 220735Z AUTO 00000KT 10SM CLR 12/11 A3004 RMK AO2
Conditions at: KTMK (TILLAMOOK , OR, US) observed 0735 UTC 22 July 2019
Temperature: 12.0°C (54°F)
Dewpoint: 11.0°C (52°F) [RH = 94%]
Pressure (altimeter): 30.04 inches Hg (1017.4 mb)
Winds: calm
Visibility: 10 or more miles (16+ km)
Ceiling: at least 12,000 feet AGL
Clouds: sky clear below 12,000 feet AGL
Weather: automated observation with no human augmentation;
there may or may not be significant weather present at this time

METAR text: KTMK 220715Z AUTO 13004KT 10SM CLR 13/11 A3004 RMK AO2
Conditions at: KTMK (TILLAMOOK , OR, US) observed 0715 UTC 22 July 2019
Temperature: 13.0°C (55°F)
Dewpoint: 11.0°C (52°F) [RH = 88%]
Pressure (altimeter): 30.04 inches Hg (1017.4 mb)
Winds: from the SE (130 degrees) at 5 MPH (4 knots; 2.1 m/s)
Visibility: 10 or more miles (16+ km)
Ceiling: at least 12,000 feet AGL
Clouds: sky clear below 12,000 feet AGL
Weather: automated observation with no human augmentation;
there may or may not be significant weather present at this time

METAR text: KTMK 220655Z AUTO 00000KT 10SM CLR 12/11 A3004 RMK AO2
Conditions at: KTMK (TILLAMOOK , OR, US) observed 0655 UTC 22 July 2019
Temperature: 12.0°C (54°F)
Dewpoint: 11.0°C (52°F) [RH = 94%]
Pressure (altimeter): 30.04 inches Hg (1017.4 mb)
Winds: calm
Visibility: 10 or more miles (16+ km)
Ceiling: at least 12,000 feet AGL
Clouds: sky clear below 12,000 feet AGL
Weather: automated observation with no human augmentation;
there may or may not be significant weather present at this time

METAR text: KTMK 220635Z AUTO 00000KT 10SM CLR 13/11 A3004 RMK AO2
Conditions at: KTMK (TILLAMOOK , OR, US) observed 0635 UTC 22 July 2019
Temperature: 13.0°C (55°F)
Dewpoint: 11.0°C (52°F) [RH = 88%]
Pressure (altimeter): 30.04 inches Hg (1017.4 mb)
Winds: calm
Visibility: 10 or more miles (16+ km)
Ceiling: at least 12,000 feet AGL
Clouds: sky clear below 12,000 feet AGL
Weather: automated observation with no human augmentation;
there may or may not be significant weather present at this time

METAR text: KTMK 220615Z AUTO 14004KT 10SM CLR 13/11 A3004 RMK AO2
Conditions at: KTMK (TILLAMOOK , OR, US) observed 0615 UTC 22 July 2019
Temperature: 13.0°C (55°F)
Dewpoint: 11.0°C (52°F) [RH = 88%]
Pressure (altimeter): 30.04 inches Hg (1017.4 mb)
Winds: from the SE (140 degrees) at 5 MPH (4 knots; 2.1 m/s)
Visibility: 10 or more miles (16+ km)
Ceiling: at least 12,000 feet AGL
Clouds: sky clear below 12,000 feet AGL
Weather: automated observation with no human augmentation;
there may or may not be significant weather present at this time

METAR text: KTMK 220555Z AUTO 14003KT 10SM CLR 13/12 A3004 RMK AO2
Conditions at: KTMK (TILLAMOOK , OR, US) observed 0555 UTC 22 July 2019
Temperature: 13.0°C (55°F)
Dewpoint: 12.0°C (54°F) [RH = 94%]
Pressure (altimeter): 30.04 inches Hg (1017.4 mb)
Winds: from the SE (140 degrees) at 3 MPH (3 knots; 1.5 m/s)
Visibility: 10 or more miles (16+ km)
Ceiling: at least 12,000 feet AGL
Clouds: sky clear below 12,000 feet AGL
Weather: automated observation with no human augmentation;
there may or may not be significant weather present at this time

METAR text: KTMK 220535Z AUTO 17004KT 10SM CLR 14/12 A3004 RMK AO2
Conditions at: KTMK (TILLAMOOK , OR, US) observed 0535 UTC 22 July 2019
Temperature: 14.0°C (57°F)
Dewpoint: 12.0°C (54°F) [RH = 88%]
Pressure (altimeter): 30.04 inches Hg (1017.4 mb)
Winds: from the S (170 degrees) at 5 MPH (4 knots; 2.1 m/s)
Visibility: 10 or more miles (16+ km)
Ceiling: at least 12,000 feet AGL
Clouds: sky clear below 12,000 feet AGL
Weather: automated observation with no human augmentation;
there may or may not be significant weather present at this time

METAR text: KTMK 220515Z AUTO 00000KT 10SM CLR 14/12 A3004 RMK AO2
Conditions at: KTMK (TILLAMOOK , OR, US) observed 0515 UTC 22 July 2019
Temperature: 14.0°C (57°F)
Dewpoint: 12.0°C (54°F) [RH = 88%]
Pressure (altimeter): 30.04 inches Hg (1017.4 mb)
Winds: calm
Visibility: 10 or more miles (16+ km)
Ceiling: at least 12,000 feet AGL
Clouds: sky clear below 12,000 feet AGL
Weather: automated observation with no human augmentation;
there may or may not be significant weather present at this time

METAR text: KTMK 220455Z AUTO 00000KT 10SM CLR 15/12 A3003 RMK AO2
Conditions at: KTMK (TILLAMOOK , OR, US) observed 0455 UTC 22 July 2019
Temperature: 15.0°C (59°F)
Dewpoint: 12.0°C (54°F) [RH = 82%]
Pressure (altimeter): 30.03 inches Hg (1017.0 mb)
Winds: calm
Visibility: 10 or more miles (16+ km)
Ceiling: at least 12,000 feet AGL
Clouds: sky clear below 12,000 feet AGL
Weather: automated observation with no human augmentation;
there may or may not be significant weather present at this time

METAR text: KTMK 220435Z AUTO 00000KT 10SM CLR 16/12 A3003 RMK AO2
Conditions at: KTMK (TILLAMOOK , OR, US) observed 0435 UTC 22 July 2019
Temperature: 16.0°C (61°F)
Dewpoint: 12.0°C (54°F) [RH = 77%]
Pressure (altimeter): 30.03 inches Hg (1017.0 mb)
Winds: calm
Visibility: 10 or more miles (16+ km)
Ceiling: at least 12,000 feet AGL
Clouds: sky clear below 12,000 feet AGL
Weather: automated observation with no human augmentation;
there may or may not be significant weather present at this time

METAR text: KTMK 220415Z AUTO 00000KT 10SM CLR 16/12 A3002 RMK AO2
Conditions at: KTMK (TILLAMOOK , OR, US) observed 0415 UTC 22 July 2019
Temperature: 16.0°C (61°F)
Dewpoint: 12.0°C (54°F) [RH = 77%]
Pressure (altimeter): 30.02 inches Hg (1016.7 mb)
Winds: calm
Visibility: 10 or more miles (16+ km)
Ceiling: at least 12,000 feet AGL
Clouds: sky clear below 12,000 feet AGL
Weather: automated observation with no human augmentation;
there may or may not be significant weather present at this time

METAR text: KTMK 220355Z AUTO 27003KT 10SM CLR 17/12 A3002 RMK AO2
Conditions at: KTMK (TILLAMOOK , OR, US) observed 0355 UTC 22 July 2019
Temperature: 17.0°C (63°F)
Dewpoint: 12.0°C (54°F) [RH = 72%]
Pressure (altimeter): 30.02 inches Hg (1016.7 mb)
Winds: from the W (270 degrees) at 3 MPH (3 knots; 1.5 m/s)
Visibility: 10 or more miles (16+ km)
Ceiling: at least 12,000 feet AGL
Clouds: sky clear below 12,000 feet AGL
Weather: automated observation with no human augmentation;
there may or may not be significant weather present at this time

METAR text: KTMK 220335Z AUTO 00000KT 10SM CLR 17/12 A3002 RMK AO2
Conditions at: KTMK (TILLAMOOK , OR, US) observed 0335 UTC 22 July 2019
Temperature: 17.0°C (63°F)
Dewpoint: 12.0°C (54°F) [RH = 72%]
Pressure (altimeter): 30.02 inches Hg (1016.7 mb)
Winds: calm
Visibility: 10 or more miles (16+ km)
Ceiling: at least 12,000 feet AGL
Clouds: sky clear below 12,000 feet AGL
Weather: automated observation with no human augmentation;
there may or may not be significant weather present at this time

METAR text: KTMK 220315Z AUTO 28006KT 10SM CLR 17/12 A3001 RMK AO2
Conditions at: KTMK (TILLAMOOK , OR, US) observed 0315 UTC 22 July 2019
Temperature: 17.0°C (63°F)
Dewpoint: 12.0°C (54°F) [RH = 72%]
Pressure (altimeter): 30.01 inches Hg (1016.3 mb)
Winds: from the W (280 degrees) at 7 MPH (6 knots; 3.1 m/s)
Visibility: 10 or more miles (16+ km)
Ceiling: at least 12,000 feet AGL
Clouds: sky clear below 12,000 feet AGL
Weather: automated observation with no human augmentation;
there may or may not be significant weather present at this time

METAR text: KTMK 220255Z AUTO 27003KT 10SM CLR 18/12 A3001 RMK AO2
Conditions at: KTMK (TILLAMOOK , OR, US) observed 0255 UTC 22 July 2019
Temperature: 18.0°C (64°F)
Dewpoint: 12.0°C (54°F) [RH = 68%]
Pressure (altimeter): 30.01 inches Hg (1016.3 mb)
Winds: from the W (270 degrees) at 3 MPH (3 knots; 1.5 m/s)
Visibility: 10 or more miles (16+ km)
Ceiling: at least 12,000 feet AGL
Clouds: sky clear below 12,000 feet AGL
Weather: automated observation with no human augmentation;
there may or may not be significant weather present at this time

METAR text: KTMK 220235Z AUTO 29009KT 10SM CLR 18/13 A3001 RMK AO2
Conditions at: KTMK (TILLAMOOK , OR, US) observed 0235 UTC 22 July 2019
Temperature: 18.0°C (64°F)
Dewpoint: 13.0°C (55°F) [RH = 73%]
Pressure (altimeter): 30.01 inches Hg (1016.3 mb)
Winds: from the WNW (290 degrees) at 10 MPH (9 knots; 4.6 m/s)
Visibility: 10 or more miles (16+ km)
Ceiling: at least 12,000 feet AGL
Clouds: sky clear below 12,000 feet AGL
Weather: automated observation with no human augmentation;
there may or may not be significant weather present at this time

METAR text: KTMK 220215Z AUTO 28009KT 10SM CLR 19/13 A3001 RMK AO2
Conditions at: KTMK (TILLAMOOK , OR, US) observed 0215 UTC 22 July 2019
Temperature: 19.0°C (66°F)
Dewpoint: 13.0°C (55°F) [RH = 68%]
Pressure (altimeter): 30.01 inches Hg (1016.3 mb)
Winds: from the W (280 degrees) at 10 MPH (9 knots; 4.6 m/s)
Visibility: 10 or more miles (16+ km)
Ceiling: at least 12,000 feet AGL
Clouds: sky clear below 12,000 feet AGL
Weather: automated observation with no human augmentation;
there may or may not be significant weather present at this time

METAR text: KTMK 220155Z AUTO 29009KT 10SM CLR 19/13 A3001 RMK AO2
Conditions at: KTMK (TILLAMOOK , OR, US) observed 0155 UTC 22 July 2019
Temperature: 19.0°C (66°F)
Dewpoint: 13.0°C (55°F) [RH = 68%]
Pressure (altimeter): 30.01 inches Hg (1016.3 mb)
Winds: from the WNW (290 degrees) at 10 MPH (9 knots; 4.6 m/s)
Visibility: 10 or more miles (16+ km)
Ceiling: at least 12,000 feet AGL
Clouds: sky clear below 12,000 feet AGL
Weather: automated observation with no human augmentation;
there may or may not be significant weather present at this time

METAR text: KTMK 220135Z AUTO 29009KT 10SM CLR 20/12 A3001 RMK AO2
Conditions at: KTMK (TILLAMOOK , OR, US) observed 0135 UTC 22 July 2019
Temperature: 20.0°C (68°F)
Dewpoint: 12.0°C (54°F) [RH = 60%]
Pressure (altimeter): 30.01 inches Hg (1016.3 mb)
Winds: from the WNW (290 degrees) at 10 MPH (9 knots; 4.6 m/s)
Visibility: 10 or more miles (16+ km)
Ceiling: at least 12,000 feet AGL
Clouds: sky clear below 12,000 feet AGL
Weather: automated observation with no human augmentation;
there may or may not be significant weather present at this time

METAR text: KTMK 220115Z AUTO 29011KT 10SM CLR 20/11 A3001 RMK AO2
Conditions at: KTMK (TILLAMOOK , OR, US) observed 0115 UTC 22 July 2019
Temperature: 20.0°C (68°F)
Dewpoint: 11.0°C (52°F) [RH = 56%]
Pressure (altimeter): 30.01 inches Hg (1016.3 mb)
Winds: from the WNW (290 degrees) at 13 MPH (11 knots; 5.7 m/s)
Visibility: 10 or more miles (16+ km)
Ceiling: at least 12,000 feet AGL
Clouds: sky clear below 12,000 feet AGL
Weather: automated observation with no human augmentation;
there may or may not be significant weather present at this time

METAR text: KTMK 220055Z AUTO 29011KT 10SM CLR 20/11 A3002 RMK AO2
Conditions at: KTMK (TILLAMOOK , OR, US) observed 0055 UTC 22 July 2019
Temperature: 20.0°C (68°F)
Dewpoint: 11.0°C (52°F) [RH = 56%]
Pressure (altimeter): 30.02 inches Hg (1016.7 mb)
Winds: from the WNW (290 degrees) at 13 MPH (11 knots; 5.7 m/s)
Visibility: 10 or more miles (16+ km)
Ceiling: at least 12,000 feet AGL
Clouds: sky clear below 12,000 feet AGL
Weather: automated observation with no human augmentation;
there may or may not be significant weather present at this time

METAR text: KTMK 220035Z AUTO 30012KT 10SM CLR 21/11 A3002 RMK AO2
Conditions at: KTMK (TILLAMOOK , OR, US) observed 0035 UTC 22 July 2019
Temperature: 21.0°C (70°F)
Dewpoint: 11.0°C (52°F) [RH = 53%]
Pressure (altimeter): 30.02 inches Hg (1016.7 mb)
Winds: from the WNW (300 degrees) at 14 MPH (12 knots; 6.2 m/s)
Visibility: 10 or more miles (16+ km)
Ceiling: at least 12,000 feet AGL
Clouds: sky clear below 12,000 feet AGL
Weather: automated observation with no human augmentation;
there may or may not be significant weather present at this time

METAR text: KTMK 220015Z AUTO 30012KT 10SM CLR 21/11 A3002 RMK AO2
Conditions at: KTMK (TILLAMOOK , OR, US) observed 0015 UTC 22 July 2019
Temperature: 21.0°C (70°F)
Dewpoint: 11.0°C (52°F) [RH = 53%]
Pressure (altimeter): 30.02 inches Hg (1016.7 mb)
Winds: from the WNW (300 degrees) at 14 MPH (12 knots; 6.2 m/s)
Visibility: 10 or more miles (16+ km)
Ceiling: at least 12,000 feet AGL
Clouds: sky clear below 12,000 feet AGL
Weather: automated observation with no human augmentation;
there may or may not be significant weather present at this time

METAR text: KTMK 212355Z AUTO 28011G16KT 10SM CLR 21/11 A3002 RMK AO2
Conditions at: KTMK (TILLAMOOK , OR, US) observed 2355 UTC 21 July 2019
Temperature: 21.0°C (70°F)
Dewpoint: 11.0°C (52°F) [RH = 53%]
Pressure (altimeter): 30.02 inches Hg (1016.7 mb)
Winds: from the W (280 degrees) at 13 MPH (11 knots; 5.7 m/s)
gusting to 18 MPH (16 knots; 8.2 m/s)
Visibility: 10 or more miles (16+ km)
Ceiling: at least 12,000 feet AGL
Clouds: sky clear below 12,000 feet AGL
Weather: automated observation with no human augmentation;
there may or may not be significant weather present at this time

METAR text: KTMK 212335Z AUTO 30011G14KT 10SM CLR 21/14 A3003 RMK AO2
Conditions at: KTMK (TILLAMOOK , OR, US) observed 2335 UTC 21 July 2019
Temperature: 21.0°C (70°F)
Dewpoint: 14.0°C (57°F) [RH = 64%]
Pressure (altimeter): 30.03 inches Hg (1017.0 mb)
Winds: from the WNW (300 degrees) at 13 MPH (11 knots; 5.7 m/s)
gusting to 16 MPH (14 knots; 7.2 m/s)
Visibility: 10 or more miles (16+ km)
Ceiling: at least 12,000 feet AGL
Clouds: sky clear below 12,000 feet AGL
Weather: automated observation with no human augmentation;
there may or may not be significant weather present at this time

METAR text: KTMK 212315Z AUTO 31012KT 10SM CLR 21/14 A3004 RMK AO2
Conditions at: KTMK (TILLAMOOK , OR, US) observed 2315 UTC 21 July 2019
Temperature: 21.0°C (70°F)
Dewpoint: 14.0°C (57°F) [RH = 64%]
Pressure (altimeter): 30.04 inches Hg (1017.4 mb)
Winds: from the NW (310 degrees) at 14 MPH (12 knots; 6.2 m/s)
Visibility: 10 or more miles (16+ km)
Ceiling: at least 12,000 feet AGL
Clouds: sky clear below 12,000 feet AGL
Weather: automated observation with no human augmentation;
there may or may not be significant weather present at this time

METAR text: KTMK 212255Z AUTO 31010KT 10SM CLR 21/14 A3004 RMK AO2
Conditions at: KTMK (TILLAMOOK , OR, US) observed 2255 UTC 21 July 2019
Temperature: 21.0°C (70°F)
Dewpoint: 14.0°C (57°F) [RH = 64%]
Pressure (altimeter): 30.04 inches Hg (1017.4 mb)
Winds: from the NW (310 degrees) at 12 MPH (10 knots; 5.1 m/s)
Visibility: 10 or more miles (16+ km)
Ceiling: at least 12,000 feet AGL
Clouds: sky clear below 12,000 feet AGL
Weather: automated observation with no human augmentation;
there may or may not be significant weather present at this time

METAR text: KTMK 212235Z AUTO 31006KT 10SM CLR 21/14 A3004 RMK AO2
Conditions at: KTMK (TILLAMOOK , OR, US) observed 2235 UTC 21 July 2019
Temperature: 21.0°C (70°F)
Dewpoint: 14.0°C (57°F) [RH = 64%]
Pressure (altimeter): 30.04 inches Hg (1017.4 mb)
Winds: from the NW (310 degrees) at 7 MPH (6 knots; 3.1 m/s)
Visibility: 10 or more miles (16+ km)
Ceiling: at least 12,000 feet AGL
Clouds: sky clear below 12,000 feet AGL
Weather: automated observation with no human augmentation;
there may or may not be significant weather present at this time

METAR text: KTMK 212215Z AUTO 31006KT 10SM CLR 21/14 A3004 RMK AO2
Conditions at: KTMK (TILLAMOOK , OR, US) observed 2215 UTC 21 July 2019
Temperature: 21.0°C (70°F)
Dewpoint: 14.0°C (57°F) [RH = 64%]
Pressure (altimeter): 30.04 inches Hg (1017.4 mb)
Winds: from the NW (310 degrees) at 7 MPH (6 knots; 3.1 m/s)
Visibility: 10 or more miles (16+ km)
Ceiling: at least 12,000 feet AGL
Clouds: sky clear below 12,000 feet AGL
Weather: automated observation with no human augmentation;
there may or may not be significant weather present at this time

METAR text: KTMK 212155Z AUTO 32009KT 10SM SCT022 21/14 A3004 RMK AO2
Conditions at: KTMK (TILLAMOOK , OR, US) observed 2155 UTC 21 July 2019
Temperature: 21.0°C (70°F)
Dewpoint: 14.0°C (57°F) [RH = 64%]
Pressure (altimeter): 30.04 inches Hg (1017.4 mb)
Winds: from the NW (320 degrees) at 10 MPH (9 knots; 4.6 m/s)
Visibility: 10 or more miles (16+ km)
Ceiling: at least 12,000 feet AGL
Clouds: scattered clouds at 2200 feet AGL
Weather: automated observation with no human augmentation;
there may or may not be significant weather present at this time

METAR text: KTMK 212135Z AUTO 32008KT 270V340 10SM SCT022 21/14 A3004 RMK AO2
Conditions at: KTMK (TILLAMOOK , OR, US) observed 2135 UTC 21 July 2019
Temperature: 21.0°C (70°F)
Dewpoint: 14.0°C (57°F) [RH = 64%]
Pressure (altimeter): 30.04 inches Hg (1017.4 mb)
Winds: from the NW (320 degrees) at 9 MPH (8 knots; 4.1 m/s)
Visibility: 10 or more miles (16+ km)
Ceiling: at least 12,000 feet AGL
Clouds: scattered clouds at 2200 feet AGL
Weather: automated observation with no human augmentation;
there may or may not be significant weather present at this time